West Miltmore, Illinois
Current Conditions -  °F | °C
As of 5:55 AM on Thursday 27 Nov 2014 (Local Time) from KUGN Reporting Station
Overcast Overcast  
Wind Chill: 11°   Ceiling: 5500
Heat Index: 22°   Visibility: 7mi
Dew Point: 18°   Wind: 10mph
Humidity: 85%   Direction: 300°WNW
Pressure: 30.24"   Gusts: NA
Location:  42.4132°N, 88.0615°W
Report Text: KUGN 271155Z 30009KT 7SM OVC055 M06/M08 A3024 RMK AO2 SLP258 60000 T10561078 11044 21067 53008
Loading
Personal Weather Stations






























Interactive Weather Map New forecast layout! Learn more

10-Day Weather Forecast

Advertisements
Track Severe Weather on mobile